Guy V. Molinari — WDB8295 — position and weather

sailwx.info

Track history (hours):
 
Tides and Currents Weather Stations Pressure Air Temp Water Temp Dewpoint Dewpoint Depression Visibility Wind Speed Wind Dir Waves Ship Positions

Guy V. Molinari

Owner: CITY OF NEW YORK, Brooklyn, NY. More information available from US FCC via Universal Licensing System and Coast Guard Vessel Documentation Center.

Last reported at 2017-Sep-25 00:29 UTC. Time now 2017-Sep-25 00:44 UTC.
Position N 40°39' W 074°04'.

Length 100 m; draft 4 m.

Type: Passenger vessel. MMSI: 366952790.

Date/timePositionNaut miles runAvg speedWind from/ knotsBaromVisibWave heightAir tempDewpointWater temp
2017-Sep-25 00:29N 40°39' W 074°04'0 0.0
2017-Sep-24 23:59N 40°39' W 074°04'0 0.0
2017-Sep-24 23:29N 40°39' W 074°04'0 0.0
2017-Sep-24 22:59N 40°39' W 074°04'0 0.0
2017-Sep-24 22:29N 40°39' W 074°04'0 0.0
2017-Sep-24 21:56N 40°39' W 074°04'0 0.0
2017-Sep-24 21:29N 40°39' W 074°04'0 0.0
2017-Sep-24 20:59N 40°39' W 074°04'0 0.0
2017-Sep-24 20:29N 40°39' W 074°04'0 0.0
2017-Sep-24 19:59N 40°39' W 074°04'0 0.0
2017-Sep-24 19:29N 40°39' W 074°04'0 0.0
2017-Sep-24 18:56N 40°39' W 074°04'0 0.0
2017-Sep-24 18:20N 40°39' W 074°04'0 0.0
2017-Sep-24 17:59N 40°39' W 074°04'0 0.0
2017-Sep-24 17:26N 40°39' W 074°04'0 0.0
2017-Sep-24 16:56N 40°39' W 074°04'0 0.0
2017-Sep-24 16:26N 40°39' W 074°04'0 0.0
2017-Sep-24 15:59N 40°39' W 074°04'0 0.0
2017-Sep-24 15:29N 40°39' W 074°04'0 0.0
2017-Sep-24 14:59N 40°39' W 074°04'0 0.0
2017-Sep-24 14:29N 40°39' W 074°04'0 0.0
2017-Sep-24 13:59N 40°39' W 074°04'0 0.0
2017-Sep-24 13:29N 40°39' W 074°04'0 0.0
2017-Sep-24 12:59N 40°39' W 074°04'0 0.0
2017-Sep-24 12:26N 40°39' W 074°04'0 0.0
2017-Sep-24 11:59N 40°39' W 074°04'0 0.0
2017-Sep-24 11:29N 40°39' W 074°04'0 0.0
2017-Sep-24 11:00N 40°39' W 074°04'0 0.0
2017-Sep-24 10:29N 40°39' W 074°04'0 0.0
2017-Sep-24 09:56N 40°39' W 074°04'0 0.0
2017-Sep-24 09:29N 40°39' W 074°04'0 0.0
2017-Sep-24 08:59N 40°39' W 074°04'0 0.0
2017-Sep-24 08:29N 40°39' W 074°04'0 0.0
2017-Sep-24 07:59N 40°39' W 074°04'0 0.0
2017-Sep-24 07:29N 40°39' W 074°04'0 0.0
2017-Sep-24 06:59N 40°39' W 074°04'0 0.0
2017-Sep-24 06:30N 40°39' W 074°04'0 0.0
2017-Sep-24 05:59N 40°39' W 074°04'0 0.0
2017-Sep-24 05:29N 40°39' W 074°04'0 0.0
2017-Sep-24 04:59N 40°39' W 074°04'0 0.0
2017-Sep-24 04:29N 40°39' W 074°04'0 0.0
2017-Sep-24 03:59N 40°39' W 074°04'0 0.0
2017-Sep-24 03:29N 40°39' W 074°04'0 0.0
2017-Sep-24 02:59N 40°39' W 074°04'0 0.0
2017-Sep-24 02:26N 40°39' W 074°04'0 0.0
2017-Sep-24 01:59N 40°39' W 074°04'0 0.0
2017-Sep-24 01:29N 40°39' W 074°04'0 0.0
2017-Sep-24 00:59N 40°39' W 074°04'0 0.0
2017-Sep-24 00:29N 40°39' W 074°04'0 0.0
2017-Sep-23 23:59N 40°39' W 074°04'0 0.0
2017-Sep-23 23:29N 40°39' W 074°04'0 0.0
2017-Sep-23 22:59N 40°39' W 074°04'0 0.0
2017-Sep-23 22:29N 40°39' W 074°04'0 0.0
2017-Sep-23 21:59N 40°39' W 074°04'0 0.0
2017-Sep-23 21:26N 40°39' W 074°04'0 0.0
2017-Sep-23 20:56N 40°39' W 074°04'0 0.0
2017-Sep-23 20:29N 40°39' W 074°04'0 0.0
2017-Sep-23 19:56N 40°39' W 074°04'0 0.0
2017-Sep-22 02:00N 40°38' W 074°04'0 0.6
2017-Sep-22 01:30N 40°39' W 074°04'0 0.1
2017-Sep-22 00:56N 40°39' W 074°04'410.0
2017-Sep-22 00:31N 40°42' W 074°01'4 8.6
2017-Sep-22 00:01N 40°39' W 074°04'3 5.3
2017-Sep-21 23:30N 40°41' W 074°02'0 0.9
2017-Sep-21 23:00N 40°40' W 074°03'0 0.9
2017-Sep-21 22:31N 40°41' W 074°02'0 0.4
2017-Sep-21 22:01N 40°41' W 074°02'1 1.7
2017-Sep-21 21:30N 40°40' W 074°03'1 2.9
2017-Sep-21 21:00N 40°41' W 074°02'3 6.9
2017-Sep-21 20:31N 40°39' W 074°04'0 0.0
2017-Sep-21 20:01N 40°39' W 074°04'4 7.9
2017-Sep-21 19:28N 40°42' W 074°01'4 9.4
2017-Sep-21 19:00N 40°39' W 074°04'0 0.0
2017-Sep-21 18:31N 40°39' W 074°04'4 8.6
2017-Sep-21 18:00N 40°42' W 074°01'4 8.6
2017-Sep-21 17:30N 40°39' W 074°04'0 0.0
2017-Sep-21 17:00N 40°39' W 074°04'0 0.0
2017-Sep-21 16:30N 40°39' W 074°04'0 0.0
2017-Sep-21 16:00N 40°39' W 074°04'0 0.0
2017-Sep-21 15:30N 40°39' W 074°04'0 0.0
2017-Sep-21 15:00N 40°39' W 074°04'0 0.0
2017-Sep-21 14:30N 40°39' W 074°04'4 8.6
2017-Sep-21 14:00N 40°42' W 074°01'4 8.7
2017-Sep-21 13:30N 40°39' W 074°04'2 3.5
2017-Sep-21 13:00N 40°40' W 074°03'1 1.6
2017-Sep-21 12:31N 40°41' W 074°02'1 2.3
2017-Sep-21 12:00N 40°40' W 074°03'2 3.3
2017-Sep-21 11:30N 40°41' W 074°02'3 6.1
2017-Sep-21 11:01N 40°39' W 074°04'4 8.6
2017-Sep-21 10:30N 40°42' W 074°01'4 8.5
2017-Sep-21 10:01N 40°39' W 074°04'0 0.1
2017-Sep-21 09:30N 40°39' W 074°04'0 0.1
2017-Sep-21 09:01N 40°39' W 074°04'0 0.0
2017-Sep-21 08:31N 40°39' W 074°04'0 0.1
2017-Sep-21 08:00N 40°39' W 074°04'0 0.1
2017-Sep-21 07:31N 40°39' W 074°04'0 0.1
2017-Sep-21 07:00N 40°39' W 074°04'0 0.0
2017-Sep-21 06:30N 40°39' W 074°04'0 0.0
2017-Sep-21 06:00N 40°39' W 074°04'0 0.0
2017-Sep-21 05:30N 40°39' W 074°04'0 0.0
2017-Sep-21 05:00N 40°39' W 074°04'0 0.0
2017-Sep-21 04:30N 40°39' W 074°04'0 0.0
2017-Sep-21 04:00N 40°39' W 074°04'0 0.0
2017-Sep-21 03:30N 40°39' W 074°04'0 0.0
2017-Sep-21 03:00N 40°39' W 074°04'0 0.0
2017-Sep-21 02:30N 40°39' W 074°04'0 0.0
2017-Sep-21 02:00N 40°39' W 074°04'0 0.0
2017-Sep-21 00:55N 40°39' W 074°04'410.3
2017-Sep-21 00:30N 40°42' W 074°01'4 8.5
2017-Sep-21 00:00N 40°39' W 074°04'3 6.1
2017-Sep-20 23:31N 40°41' W 074°02'0 0.7
2017-Sep-20 23:00N 40°41' W 074°02'1 1.4
2017-Sep-20 22:30N 40°40' W 074°03'1 1.4
2017-Sep-20 22:00N 40°41' W 074°02'1 1.5
2017-Sep-20 21:31N 40°40' W 074°03'1 2.5
2017-Sep-20 21:00N 40°41' W 074°02'3 6.5
2017-Sep-20 20:31N 40°39' W 074°04'0 0.0
2017-Sep-20 20:01N 40°39' W 074°04'4 8.4
2017-Sep-20 19:30N 40°42' W 074°01'4 8.8
2017-Sep-20 19:00N 40°39' W 074°04'0 0.0
2017-Sep-20 18:30N 40°39' W 074°04'4 8.6
2017-Sep-20 18:00N 40°42' W 074°01'4 8.7
2017-Sep-20 17:30N 40°39' W 074°04'0 0.0
2017-Sep-20 17:00N 40°39' W 074°04'4 8.7
2017-Sep-20 16:30N 40°42' W 074°01'4 8.6
2017-Sep-20 16:01N 40°39' W 074°04'0 0.0
2017-Sep-20 13:15N 40°39' W 074°04'2 9.9
2017-Sep-20 13:01N 40°41' W 074°02'0 0.8
2017-Sep-20 12:30N 40°40' W 074°03'1 1.2
2017-Sep-20 12:00N 40°40' W 074°03'2 3.3
2017-Sep-20 11:30N 40°41' W 074°02'3 6.1
2017-Sep-20 11:00N 40°39' W 074°04'4 8.6
2017-Sep-20 10:30N 40°42' W 074°01'4 8.5
2017-Sep-20 10:00N 40°39' W 074°04'0 0.1
2017-Sep-20 09:30N 40°39' W 074°04'0 0.0
2017-Sep-20 09:00N 40°39' W 074°04'0 0.0
2017-Sep-20 08:30N 40°39' W 074°04'0 0.0
2017-Sep-20 07:34N 40°39' W 074°04'0 0.0
2017-Sep-20 07:30N 40°39' W 074°04'0 0.0
2017-Sep-20 07:00N 40°39' W 074°04'0 0.0
2017-Sep-20 06:30N 40°39' W 074°04'0 0.0
2017-Sep-20 06:00N 40°39' W 074°04'0 0.0
2017-Sep-20 05:30N 40°39' W 074°04'0 0.0
2017-Sep-20 05:00N 40°39' W 074°04'0 0.0
2017-Sep-20 04:30N 40°39' W 074°04'0 0.0
2017-Sep-20 04:00N 40°39' W 074°04'0 0.0
2017-Sep-20 03:30N 40°39' W 074°04'0 0.0
2017-Sep-20 03:00N 40°39' W 074°04'0 0.0
2017-Sep-20 02:30N 40°39' W 074°04'0 0.0
2017-Sep-20 02:00N 40°39' W 074°04'0 0.0
2017-Sep-20 01:30N 40°39' W 074°04'0 0.1
2017-Sep-20 00:57N 40°39' W 074°04'4 9.5
2017-Sep-20 00:30N 40°42' W 074°01'4 8.6
2017-Sep-20 00:00N 40°39' W 074°04'3 5.5
2017-Sep-19 23:31N 40°41' W 074°02'1 1.0
2017-Sep-19 23:00N 40°40' W 074°02'0 0.4
2017-Sep-19 22:30N 40°40' W 074°03'1 2.2
2017-Sep-19 22:01N 40°41' W 074°02'2 3.8
2017-Sep-19 21:30N 40°40' W 074°03'2 4.0
2017-Sep-19 21:00N 40°41' W 074°02'3 6.6
2017-Sep-19 20:30N 40°39' W 074°04'0 0.0
2017-Sep-19 20:00N 40°39' W 074°04'4 8.6
2017-Sep-19 19:30N 40°42' W 074°01'4 8.7
2017-Sep-19 19:01N 40°39' W 074°04'0 0.0
2017-Sep-19 18:30N 40°39' W 074°04'0 0.0
2017-Sep-19 18:00N 40°39' W 074°04'4 8.6
2017-Sep-19 17:30N 40°42' W 074°01'4 8.6
2017-Sep-19 17:00N 40°39' W 074°04'0 0.1
2017-Sep-19 16:30N 40°39' W 074°04'4 8.7
2017-Sep-19 16:00N 40°42' W 074°01'4 8.6
2017-Sep-19 15:30N 40°39' W 074°04'4 8.7
2017-Sep-19 15:01N 40°42' W 074°01'4 8.6
2017-Sep-19 14:30N 40°39' W 074°04'0 0.0
2017-Sep-19 13:16N 40°39' W 074°04'311.2
2017-Sep-19 13:00N 40°41' W 074°02'1 2.4
2017-Sep-19 12:31N 40°40' W 074°03'0 0.6
2017-Sep-19 12:01N 40°40' W 074°03'0 0.4
2017-Sep-19 11:30N 40°40' W 074°03'2 4.4
2017-Sep-19 11:00N 40°39' W 074°04'4 8.7
2017-Sep-19 10:31N 40°42' W 074°01'4 8.6
2017-Sep-19 10:01N 40°39' W 074°04'0 0.0
2017-Sep-19 09:31N 40°39' W 074°04'0 0.0
2017-Sep-19 09:01N 40°39' W 074°04'0 0.0
2017-Sep-19 08:31N 40°39' W 074°04'0 0.0
2017-Sep-19 08:01N 40°39' W 074°04'0 0.0
2017-Sep-19 07:31N 40°39' W 074°04'0 0.0
2017-Sep-19 07:01N 40°39' W 074°04'0 0.0
2017-Sep-19 06:31N 40°39' W 074°04'0 0.0
2017-Sep-19 04:40N 40°39' W 074°04'0 0.0
2017-Sep-19 04:30N 40°39' W 074°04'0 0.0
2017-Sep-19 04:00N 40°39' W 074°04'0 0.0
2017-Sep-19 03:30N 40°39' W 074°04'4 8.6
2017-Sep-19 03:00N 40°42' W 074°01'4 8.6
2017-Sep-19 02:31N 40°39' W 074°04'0 0.0
2017-Sep-19 02:00N 40°39' W 074°04'4 8.6
2017-Sep-19 01:30N 40°42' W 074°01'4 8.6
2017-Sep-19 01:00N 40°39' W 074°04'0 0.0
2017-Sep-19 00:30N 40°39' W 074°04'0 0.0
2017-Sep-19 00:00N 40°39' W 074°04'3 6.0
2017-Sep-18 23:30N 40°41' W 074°02'0 0.8
2017-Sep-18 23:01N 40°41' W 074°02'1 1.6
2017-Sep-18 22:31N 40°40' W 074°03'2 4.3
2017-Sep-18 22:01N 40°42' W 074°01'3 7.0
2017-Sep-18 21:30N 40°39' W 074°04'4 7.7
2017-Sep-18 21:01N 40°42' W 074°01'4 8.6
2017-Sep-18 20:30N 40°39' W 074°04'4 8.7
2017-Sep-18 20:00N 40°42' W 074°01'4 8.6
2017-Sep-18 19:30N 40°39' W 074°04'0 0.0
2017-Sep-18 19:00N 40°39' W 074°04'4 8.2
2017-Sep-18 18:29N 40°42' W 074°01'4 9.1
2017-Sep-18 18:01N 40°39' W 074°04'0 0.0
2017-Sep-18 17:31N 40°39' W 074°04'4 8.7
2017-Sep-18 17:00N 40°42' W 074°01'4 8.6
2017-Sep-18 16:30N 40°39' W 074°04'4 8.6
2017-Sep-18 16:00N 40°42' W 074°01'4 8.6
2017-Sep-18 15:30N 40°39' W 074°04'4 8.7
2017-Sep-18 15:00N 40°42' W 074°01'4 8.7
2017-Sep-18 14:30N 40°39' W 074°04'4 8.6
2017-Sep-18 14:00N 40°42' W 074°01'4 8.6
2017-Sep-18 13:31N 40°39' W 074°04'4 7.7
2017-Sep-18 13:00N 40°42' W 074°01'3 6.9
2017-Sep-18 12:31N 40°39' W 074°04'3 5.2
2017-Sep-18 12:01N 40°41' W 074°02'1 2.3
2017-Sep-18 11:31N 40°40' W 074°03'2 3.9
2017-Sep-18 11:00N 40°39' W 074°04'4 8.6
2017-Sep-18 10:30N 40°42' W 074°01'4 5.8
2017-Sep-18 09:46N 40°39' W 074°04'0 0.4
2017-Sep-18 09:30N 40°39' W 074°04'0 0.0
2017-Sep-18 09:00N 40°39' W 074°04'0 0.0
2017-Sep-18 08:31N 40°39' W 074°04'0 0.0
2017-Sep-18 08:00N 40°39' W 074°04'0 0.0
2017-Sep-18 07:30N 40°39' W 074°04'0 0.1
2017-Sep-18 06:59N 40°39' W 074°04'0 0.0
2017-Sep-18 06:29N 40°39' W 074°04'0 0.0
2017-Sep-18 05:59N 40°39' W 074°04'0 0.0
2017-Sep-18 05:29N 40°39' W 074°04'0 0.0
2017-Sep-18 04:59N 40°39' W 074°04'0 0.0
2017-Sep-18 04:29N 40°39' W 074°04'0 0.0
2017-Sep-18 03:59N 40°39' W 074°04'0 0.0
2017-Sep-18 03:29N 40°39' W 074°04'0 0.0
2017-Sep-18 02:59N 40°39' W 074°04'0 0.0
2017-Sep-18 02:29N 40°39' W 074°04'0 0.0
2017-Sep-18 01:59N 40°39' W 074°04'0 0.0
2017-Sep-18 01:29N 40°39' W 074°04'0 0.0
2017-Sep-18 00:59N 40°39' W 074°04'0 0.0
2017-Sep-18 00:29N 40°39' W 074°04'0 0.0
2017-Sep-17 23:59N 40°39' W 074°04'0 0.0
2017-Sep-17 23:29N 40°39' W 074°04'0 0.0
2017-Sep-17 22:59N 40°39' W 074°04'0 0.0
2017-Sep-17 22:29N 40°39' W 074°04'0 0.0
2017-Sep-17 21:59N 40°39' W 074°04'0 0.0
2017-Sep-17 21:29N 40°39' W 074°04'0 0.0
2017-Sep-17 20:59N 40°39' W 074°04'0 0.0
2017-Sep-17 20:29N 40°39' W 074°04'0 0.0
2017-Sep-17 19:59N 40°39' W 074°04'0 0.0
2017-Sep-17 19:29N 40°39' W 074°04'0 0.0
2017-Sep-17 18:59N 40°39' W 074°04'0 0.0
2017-Sep-17 18:29N 40°39' W 074°04'0 0.0
2017-Sep-17 17:59N 40°39' W 074°04'0 0.0
2017-Sep-17 17:29N 40°39' W 074°04'0 0.0
2017-Sep-17 16:59N 40°39' W 074°04'0 0.0
2017-Sep-17 16:29N 40°39' W 074°04'0 0.0
2017-Sep-17 15:59N 40°39' W 074°04'0 0.0
2017-Sep-17 15:29N 40°39' W 074°04'0 0.0
2017-Sep-17 14:59N 40°39' W 074°04'0 0.0
2017-Sep-17 14:29N 40°39' W 074°04'0 0.0
2017-Sep-17 13:59N 40°39' W 074°04'0 0.0
2017-Sep-17 13:29N 40°39' W 074°04'0 0.0
2017-Sep-17 12:59N 40°39' W 074°04'0 0.0
2017-Sep-17 12:29N 40°39' W 074°04'0 0.0
2017-Sep-17 11:59N 40°39' W 074°04'0 0.0
2017-Sep-17 11:26N 40°39' W 074°04'0 0.0
2017-Sep-17 10:59N 40°39' W 074°04'0 0.0
2017-Sep-17 10:29N 40°39' W 074°04'0 0.0
2017-Sep-17 09:59N 40°39' W 074°04'0 0.0
2017-Sep-17 09:29N 40°39' W 074°04'0 0.0
2017-Sep-17 08:59N 40°39' W 074°04'0 0.0
2017-Sep-17 08:29N 40°39' W 074°04'0 0.0
2017-Sep-17 07:59N 40°39' W 074°04'0 0.0
2017-Sep-17 07:29N 40°39' W 074°04'0 0.0
2017-Sep-17 06:59N 40°39' W 074°04'0 0.0
2017-Sep-17 06:29N 40°39' W 074°04'0 0.0
2017-Sep-17 05:59N 40°39' W 074°04'0 0.0
2017-Sep-17 05:30N 40°39' W 074°04'0 0.0
2017-Sep-17 04:59N 40°39' W 074°04'0 0.0
2017-Sep-17 04:29N 40°39' W 074°04'0 0.0
2017-Sep-17 03:59N 40°39' W 074°04'0 0.0
2017-Sep-17 03:29N 40°39' W 074°04'0 0.0
2017-Sep-17 02:59N 40°39' W 074°04'0 0.0
2017-Sep-17 02:29N 40°39' W 074°04'0 0.0
2017-Sep-17 01:59N 40°39' W 074°04'0 0.0
2017-Sep-17 01:29N 40°39' W 074°04'0 0.0
2017-Sep-17 00:59N 40°39' W 074°04'0 0.0
2017-Sep-17 00:29N 40°39' W 074°04'0 0.0
2017-Sep-16 23:59N 40°39' W 074°04'0 0.0
2017-Sep-16 23:29N 40°39' W 074°04'0 0.0
2017-Sep-16 22:59N 40°39' W 074°04'0 0.4
2017-Sep-16 22:31N 40°39' W 074°04'0 0.4
2017-Sep-16 22:00N 40°39' W 074°04'4 4.3
2017-Sep-16 21:01N 40°42' W 074°01'4 8.6
2017-Sep-16 20:30N 40°39' W 074°04'0 0.0
2017-Sep-16 20:01N 40°39' W 074°04'4 8.6
2017-Sep-16 19:30N 40°42' W 074°01'4 8.6
2017-Sep-16 19:00N 40°39' W 074°04'0 0.0
2017-Sep-16 18:30N 40°39' W 074°04'4 8.6
2017-Sep-16 18:00N 40°42' W 074°01'4 8.6
2017-Sep-16 17:31N 40°39' W 074°04'0 0.1
2017-Sep-16 17:00N 40°39' W 074°04'4 8.7
2017-Sep-16 16:31N 40°42' W 074°01'4 8.6
2017-Sep-16 16:00N 40°39' W 074°04'0 0.1
2017-Sep-16 15:30N 40°39' W 074°04'4 8.6
2017-Sep-16 15:00N 40°42' W 074°01'4 8.6
2017-Sep-16 14:31N 40°39' W 074°04'4 8.5
2017-Sep-16 14:00N 40°42' W 074°01'4 8.5
2017-Sep-16 13:30N 40°39' W 074°04'4 8.6
2017-Sep-16 13:01N 40°42' W 074°01'4 8.6
2017-Sep-16 12:30N 40°39' W 074°04'4 8.5
2017-Sep-16 12:00N 40°42' W 074°01'4 8.5
2017-Sep-16 11:30N 40°39' W 074°04'0 0.4
2017-Sep-16 11:01N 40°39' W 074°04'0 0.3
2017-Sep-16 10:30N 40°39' W 074°04'0 0.0
2017-Sep-16 10:00N 40°39' W 074°04'0 0.0
2017-Sep-16 09:30N 40°39' W 074°04'0 0.0
2017-Sep-16 09:00N 40°39' W 074°04'0 0.0
2017-Sep-16 08:29N 40°39' W 074°04'0 0.0
2017-Sep-16 07:59N 40°39' W 074°04'0 0.0
2017-Sep-16 07:29N 40°39' W 074°04'0 0.0
2017-Sep-16 06:59N 40°39' W 074°04'0 0.0
2017-Sep-16 06:29N 40°39' W 074°04'0 0.0
2017-Sep-16 05:59N 40°39' W 074°04'0 0.0
2017-Sep-16 05:29N 40°39' W 074°04'0 0.0
2017-Sep-16 04:59N 40°39' W 074°04'0 0.0
2017-Sep-16 04:29N 40°39' W 074°04'0 0.0
2017-Sep-16 03:59N 40°39' W 074°04'0 0.0
2017-Sep-16 03:29N 40°39' W 074°04'0 0.0
2017-Sep-16 02:59N 40°39' W 074°04'0 0.0
2017-Sep-16 02:29N 40°39' W 074°04'0 0.0
2017-Sep-16 01:59N 40°39' W 074°04'0 0.1
2017-Sep-16 01:30N 40°39' W 074°04'0 0.0
2017-Sep-16 01:00N 40°39' W 074°04'4 8.7
2017-Sep-16 00:30N 40°42' W 074°01'4 8.6
2017-Sep-16 00:01N 40°39' W 074°04'3 6.3
2017-Sep-15 23:30N 40°41' W 074°02'2 4.1
2017-Sep-15 23:01N 40°39' W 074°03'2 4.1
2017-Sep-15 22:30N 40°41' W 074°02'2 3.7
2017-Sep-15 22:01N 40°40' W 074°03'2 3.1
2017-Sep-15 21:30N 40°41' W 074°02'3 4.0
2017-Sep-15 20:48N 40°39' W 074°04'0 0.1
2017-Sep-15 20:31N 40°39' W 074°04'0 0.0
2017-Sep-15 20:01N 40°39' W 074°04'4 8.6
2017-Sep-15 19:31N 40°42' W 074°01'4 8.7
2017-Sep-15 19:00N 40°39' W 074°04'1 1.2
2017-Sep-15 18:30N 40°38' W 074°04'1 1.2
2017-Sep-15 18:00N 40°39' W 074°04'0 0.0
2017-Sep-15 17:30N 40°39' W 074°04'0 0.0
2017-Sep-15 17:00N 40°39' W 074°04'0 0.0
2017-Sep-15 16:30N 40°39' W 074°04'0 0.0
2017-Sep-15 16:01N 40°39' W 074°04'0 0.0
2017-Sep-15 15:30N 40°39' W 074°04'0 0.1
2017-Sep-15 15:00N 40°39' W 074°04'0 0.0
2017-Sep-15 14:30N 40°39' W 074°04'0 0.0
2017-Sep-15 14:00N 40°39' W 074°04'0 0.0
2017-Sep-15 13:30N 40°39' W 074°04'0 0.0
2017-Sep-15 13:00N 40°39' W 074°04'0 0.0
2017-Sep-15 12:30N 40°39' W 074°04'0 0.0
2017-Sep-15 12:00N 40°39' W 074°04'0 0.0
2017-Sep-15 11:30N 40°39' W 074°04'0 0.0
2017-Sep-15 11:00N 40°39' W 074°04'0 0.0
2017-Sep-15 10:30N 40°39' W 074°04'0 0.0
2017-Sep-15 10:00N 40°39' W 074°04'0 0.0
2017-Sep-15 09:30N 40°39' W 074°04'0 0.0
2017-Sep-15 09:00N 40°39' W 074°04'0 0.0
2017-Sep-15 08:30N 40°39' W 074°04'0 0.0
2017-Sep-15 08:00N 40°39' W 074°04'0 0.0
2017-Sep-15 07:30N 40°39' W 074°04'0 0.0
2017-Sep-15 07:00N 40°39' W 074°04'0 0.0
2017-Sep-15 06:30N 40°39' W 074°04'0 0.0
2017-Sep-15 06:00N 40°39' W 074°04'0 0.0
2017-Sep-15 05:30N 40°39' W 074°04'0 0.0
2017-Sep-15 05:00N 40°39' W 074°04'0 0.0
2017-Sep-15 04:30N 40°39' W 074°04'0 0.0
2017-Sep-15 04:00N 40°39' W 074°04'0 0.0
2017-Sep-15 03:30N 40°39' W 074°04'0 0.0
2017-Sep-15 03:00N 40°39' W 074°04'0 0.0
2017-Sep-15 02:30N 40°39' W 074°04'0 0.0
2017-Sep-15 02:00N 40°39' W 074°04'0 0.0
2017-Sep-15 01:30N 40°39' W 074°04'0 0.0
2017-Sep-15 01:00N 40°39' W 074°04'0 0.0
2017-Sep-15 00:30N 40°39' W 074°04'  
Track history (hours):
 
Tides and Currents Weather Stations Pressure Air Temp Water Temp Dewpoint Dewpoint Depression Visibility Wind Speed Wind Dir Waves Ship Positions

Guy V. Molinari

Owner: CITY OF NEW YORK, Brooklyn, NY. More information available from US FCC via Universal Licensing System and Coast Guard Vessel Documentation Center.

Last reported at 2017-Sep-25 00:29 UTC. Time now 2017-Sep-25 00:44 UTC.
Position N 40°39' W 074°04'.

Length 100 m; draft 4 m.

Type: Passenger vessel. MMSI: 366952790.

Date/timePositionNaut miles runAvg speedWind from/ knotsBaromVisibWave heightAir tempDewpointWater temp
2017-Sep-25 00:29N 40°39' W 074°04'0 0.0
2017-Sep-24 23:59N 40°39' W 074°04'0 0.0
2017-Sep-24 23:29N 40°39' W 074°04'0 0.0
2017-Sep-24 22:59N 40°39' W 074°04'0 0.0
2017-Sep-24 22:29N 40°39' W 074°04'0 0.0
2017-Sep-24 21:56N 40°39' W 074°04'0 0.0
2017-Sep-24 21:29N 40°39' W 074°04'0 0.0
2017-Sep-24 20:59N 40°39' W 074°04'0 0.0
2017-Sep-24 20:29N 40°39' W 074°04'0 0.0
2017-Sep-24 19:59N 40°39' W 074°04'0 0.0
2017-Sep-24 19:29N 40°39' W 074°04'0 0.0
2017-Sep-24 18:56N 40°39' W 074°04'0 0.0
2017-Sep-24 18:20N 40°39' W 074°04'0 0.0
2017-Sep-24 17:59N 40°39' W 074°04'0 0.0
2017-Sep-24 17:26N 40°39' W 074°04'0 0.0
2017-Sep-24 16:56N 40°39' W 074°04'0 0.0
2017-Sep-24 16:26N 40°39' W 074°04'0 0.0
2017-Sep-24 15:59N 40°39' W 074°04'0 0.0
2017-Sep-24 15:29N 40°39' W 074°04'0 0.0
2017-Sep-24 14:59N 40°39' W 074°04'0 0.0
2017-Sep-24 14:29N 40°39' W 074°04'0 0.0
2017-Sep-24 13:59N 40°39' W 074°04'0 0.0
2017-Sep-24 13:29N 40°39' W 074°04'0 0.0
2017-Sep-24 12:59N 40°39' W 074°04'0 0.0
2017-Sep-24 12:26N 40°39' W 074°04'0 0.0
2017-Sep-24 11:59N 40°39' W 074°04'0 0.0
2017-Sep-24 11:29N 40°39' W 074°04'0 0.0
2017-Sep-24 11:00N 40°39' W 074°04'0 0.0
2017-Sep-24 10:29N 40°39' W 074°04'0 0.0
2017-Sep-24 09:56N 40°39' W 074°04'0 0.0
2017-Sep-24 09:29N 40°39' W 074°04'0 0.0
2017-Sep-24 08:59N 40°39' W 074°04'0 0.0
2017-Sep-24 08:29N 40°39' W 074°04'0 0.0
2017-Sep-24 07:59N 40°39' W 074°04'0 0.0
2017-Sep-24 07:29N 40°39' W 074°04'0 0.0
2017-Sep-24 06:59N 40°39' W 074°04'0 0.0
2017-Sep-24 06:30N 40°39' W 074°04'0 0.0
2017-Sep-24 05:59N 40°39' W 074°04'0 0.0
2017-Sep-24 05:29N 40°39' W 074°04'0 0.0
2017-Sep-24 04:59N 40°39' W 074°04'0 0.0
2017-Sep-24 04:29N 40°39' W 074°04'0 0.0
2017-Sep-24 03:59N 40°39' W 074°04'0 0.0
2017-Sep-24 03:29N 40°39' W 074°04'0 0.0
2017-Sep-24 02:59N 40°39' W 074°04'0 0.0
2017-Sep-24 02:26N 40°39' W 074°04'0 0.0
2017-Sep-24 01:59N 40°39' W 074°04'0 0.0
2017-Sep-24 01:29N 40°39' W 074°04'0 0.0
2017-Sep-24 00:59N 40°39' W 074°04'0 0.0
2017-Sep-24 00:29N 40°39' W 074°04'0 0.0
2017-Sep-23 23:59N 40°39' W 074°04'0 0.0
2017-Sep-23 23:29N 40°39' W 074°04'0 0.0
2017-Sep-23 22:59N 40°39' W 074°04'0 0.0
2017-Sep-23 22:29N 40°39' W 074°04'0 0.0
2017-Sep-23 21:59N 40°39' W 074°04'0 0.0
2017-Sep-23 21:26N 40°39' W 074°04'0 0.0
2017-Sep-23 20:56N 40°39' W 074°04'0 0.0
2017-Sep-23 20:29N 40°39' W 074°04'0 0.0
2017-Sep-23 19:56N 40°39' W 074°04'0 0.0
2017-Sep-22 02:00N 40°38' W 074°04'0 0.6
2017-Sep-22 01:30N 40°39' W 074°04'0 0.1
2017-Sep-22 00:56N 40°39' W 074°04'410.0
2017-Sep-22 00:31N 40°42' W 074°01'4 8.6
2017-Sep-22 00:01N 40°39' W 074°04'3 5.3
2017-Sep-21 23:30N 40°41' W 074°02'0 0.9
2017-Sep-21 23:00N 40°40' W 074°03'0 0.9
2017-Sep-21 22:31N 40°41' W 074°02'0 0.4
2017-Sep-21 22:01N 40°41' W 074°02'1 1.7
2017-Sep-21 21:30N 40°40' W 074°03'1 2.9
2017-Sep-21 21:00N 40°41' W 074°02'3 6.9
2017-Sep-21 20:31N 40°39' W 074°04'0 0.0
2017-Sep-21 20:01N 40°39' W 074°04'4 7.9
2017-Sep-21 19:28N 40°42' W 074°01'4 9.4
2017-Sep-21 19:00N 40°39' W 074°04'0 0.0
2017-Sep-21 18:31N 40°39' W 074°04'4 8.6
2017-Sep-21 18:00N 40°42' W 074°01'4 8.6
2017-Sep-21 17:30N 40°39' W 074°04'0 0.0
2017-Sep-21 17:00N 40°39' W 074°04'0 0.0
2017-Sep-21 16:30N 40°39' W 074°04'0 0.0
2017-Sep-21 16:00N 40°39' W 074°04'0 0.0
2017-Sep-21 15:30N 40°39' W 074°04'0 0.0
2017-Sep-21 15:00N 40°39' W 074°04'0 0.0
2017-Sep-21 14:30N 40°39' W 074°04'4 8.6
2017-Sep-21 14:00N 40°42' W 074°01'4 8.7
2017-Sep-21 13:30N 40°39' W 074°04'2 3.5
2017-Sep-21 13:00N 40°40' W 074°03'1 1.6
2017-Sep-21 12:31N 40°41' W 074°02'1 2.3
2017-Sep-21 12:00N 40°40' W 074°03'2 3.3
2017-Sep-21 11:30N 40°41' W 074°02'3 6.1
2017-Sep-21 11:01N 40°39' W 074°04'4 8.6
2017-Sep-21 10:30N 40°42' W 074°01'4 8.5
2017-Sep-21 10:01N 40°39' W 074°04'0 0.1
2017-Sep-21 09:30N 40°39' W 074°04'0 0.1
2017-Sep-21 09:01N 40°39' W 074°04'0 0.0
2017-Sep-21 08:31N 40°39' W 074°04'0 0.1
2017-Sep-21 08:00N 40°39' W 074°04'0 0.1
2017-Sep-21 07:31N 40°39' W 074°04'0 0.1
2017-Sep-21 07:00N 40°39' W 074°04'0 0.0
2017-Sep-21 06:30N 40°39' W 074°04'0 0.0
2017-Sep-21 06:00N 40°39' W 074°04'0 0.0
2017-Sep-21 05:30N 40°39' W 074°04'0 0.0
2017-Sep-21 05:00N 40°39' W 074°04'0 0.0
2017-Sep-21 04:30N 40°39' W 074°04'0 0.0
2017-Sep-21 04:00N 40°39' W 074°04'0 0.0
2017-Sep-21 03:30N 40°39' W 074°04'0 0.0
2017-Sep-21 03:00N 40°39' W 074°04'0 0.0
2017-Sep-21 02:30N 40°39' W 074°04'0 0.0
2017-Sep-21 02:00N 40°39' W 074°04'0 0.0
2017-Sep-21 00:55N 40°39' W 074°04'410.3
2017-Sep-21 00:30N 40°42' W 074°01'4 8.5
2017-Sep-21 00:00N 40°39' W 074°04'3 6.1
2017-Sep-20 23:31N 40°41' W 074°02'0 0.7
2017-Sep-20 23:00N 40°41' W 074°02'1 1.4
2017-Sep-20 22:30N 40°40' W 074°03'1 1.4
2017-Sep-20 22:00N 40°41' W 074°02'1 1.5
2017-Sep-20 21:31N 40°40' W 074°03'1 2.5
2017-Sep-20 21:00N 40°41' W 074°02'3 6.5
2017-Sep-20 20:31N 40°39' W 074°04'0 0.0
2017-Sep-20 20:01N 40°39' W 074°04'4 8.4
2017-Sep-20 19:30N 40°42' W 074°01'4 8.8
2017-Sep-20 19:00N 40°39' W 074°04'0 0.0
2017-Sep-20 18:30N 40°39' W 074°04'4 8.6
2017-Sep-20 18:00N 40°42' W 074°01'4 8.7
2017-Sep-20 17:30N 40°39' W 074°04'0 0.0
2017-Sep-20 17:00N 40°39' W 074°04'4 8.7
2017-Sep-20 16:30N 40°42' W 074°01'4 8.6
2017-Sep-20 16:01N 40°39' W 074°04'0 0.0
2017-Sep-20 13:15N 40°39' W 074°04'2 9.9
2017-Sep-20 13:01N 40°41' W 074°02'0 0.8
2017-Sep-20 12:30N 40°40' W 074°03'1 1.2
2017-Sep-20 12:00N 40°40' W 074°03'2 3.3
2017-Sep-20 11:30N 40°41' W 074°02'3 6.1
2017-Sep-20 11:00N 40°39' W 074°04'4 8.6
2017-Sep-20 10:30N 40°42' W 074°01'4 8.5
2017-Sep-20 10:00N 40°39' W 074°04'0 0.1
2017-Sep-20 09:30N 40°39' W 074°04'0 0.0
2017-Sep-20 09:00N 40°39' W 074°04'0 0.0
2017-Sep-20 08:30N 40°39' W 074°04'0 0.0
2017-Sep-20 07:34N 40°39' W 074°04'0 0.0
2017-Sep-20 07:30N 40°39' W 074°04'0 0.0
2017-Sep-20 07:00N 40°39' W 074°04'0 0.0
2017-Sep-20 06:30N 40°39' W 074°04'0 0.0
2017-Sep-20 06:00N 40°39' W 074°04'0 0.0
2017-Sep-20 05:30N 40°39' W 074°04'0 0.0
2017-Sep-20 05:00N 40°39' W 074°04'0 0.0
2017-Sep-20 04:30N 40°39' W 074°04'0 0.0
2017-Sep-20 04:00N 40°39' W 074°04'0 0.0
2017-Sep-20 03:30N 40°39' W 074°04'0 0.0
2017-Sep-20 03:00N 40°39' W 074°04'0 0.0
2017-Sep-20 02:30N 40°39' W 074°04'0 0.0
2017-Sep-20 02:00N 40°39' W 074°04'0 0.0
2017-Sep-20 01:30N 40°39' W 074°04'0 0.1
2017-Sep-20 00:57N 40°39' W 074°04'4 9.5
2017-Sep-20 00:30N 40°42' W 074°01'4 8.6
2017-Sep-20 00:00N 40°39' W 074°04'3 5.5
2017-Sep-19 23:31N 40°41' W 074°02'1 1.0
2017-Sep-19 23:00N 40°40' W 074°02'0 0.4
2017-Sep-19 22:30N 40°40' W 074°03'1 2.2
2017-Sep-19 22:01N 40°41' W 074°02'2 3.8
2017-Sep-19 21:30N 40°40' W 074°03'2 4.0
2017-Sep-19 21:00N 40°41' W 074°02'3 6.6
2017-Sep-19 20:30N 40°39' W 074°04'0 0.0
2017-Sep-19 20:00N 40°39' W 074°04'4 8.6
2017-Sep-19 19:30N 40°42' W 074°01'4 8.7
2017-Sep-19 19:01N 40°39' W 074°04'0 0.0
2017-Sep-19 18:30N 40°39' W 074°04'0 0.0
2017-Sep-19 18:00N 40°39' W 074°04'4 8.6
2017-Sep-19 17:30N 40°42' W 074°01'4 8.6
2017-Sep-19 17:00N 40°39' W 074°04'0 0.1
2017-Sep-19 16:30N 40°39' W 074°04'4 8.7
2017-Sep-19 16:00N 40°42' W 074°01'4 8.6
2017-Sep-19 15:30N 40°39' W 074°04'4 8.7
2017-Sep-19 15:01N 40°42' W 074°01'4 8.6
2017-Sep-19 14:30N 40°39' W 074°04'0 0.0
2017-Sep-19 13:16N 40°39' W 074°04'311.2
2017-Sep-19 13:00N 40°41' W 074°02'1 2.4
2017-Sep-19 12:31N 40°40' W 074°03'0 0.6
2017-Sep-19 12:01N 40°40' W 074°03'0 0.4
2017-Sep-19 11:30N 40°40' W 074°03'2 4.4
2017-Sep-19 11:00N 40°39' W 074°04'4 8.7
2017-Sep-19 10:31N 40°42' W 074°01'4 8.6
2017-Sep-19 10:01N 40°39' W 074°04'0 0.0
2017-Sep-19 09:31N 40°39' W 074°04'0 0.0
2017-Sep-19 09:01N 40°39' W 074°04'0 0.0
2017-Sep-19 08:31N 40°39' W 074°04'0 0.0
2017-Sep-19 08:01N 40°39' W 074°04'0 0.0
2017-Sep-19 07:31N 40°39' W 074°04'0 0.0
2017-Sep-19 07:01N 40°39' W 074°04'0 0.0
2017-Sep-19 06:31N 40°39' W 074°04'0 0.0
2017-Sep-19 04:40N 40°39' W 074°04'0 0.0
2017-Sep-19 04:30N 40°39' W 074°04'0 0.0
2017-Sep-19 04:00N 40°39' W 074°04'0 0.0
2017-Sep-19 03:30N 40°39' W 074°04'4 8.6
2017-Sep-19 03:00N 40°42' W 074°01'4 8.6
2017-Sep-19 02:31N 40°39' W 074°04'0 0.0
2017-Sep-19 02:00N 40°39' W 074°04'4 8.6
2017-Sep-19 01:30N 40°42' W 074°01'4 8.6
2017-Sep-19 01:00N 40°39' W 074°04'0 0.0
2017-Sep-19 00:30N 40°39' W 074°04'0 0.0
2017-Sep-19 00:00N 40°39' W 074°04'3 6.0
2017-Sep-18 23:30N 40°41' W 074°02'0 0.8
2017-Sep-18 23:01N 40°41' W 074°02'1 1.6
2017-Sep-18 22:31N 40°40' W 074°03'2 4.3
2017-Sep-18 22:01N 40°42' W 074°01'3 7.0
2017-Sep-18 21:30N 40°39' W 074°04'4 7.7
2017-Sep-18 21:01N 40°42' W 074°01'4 8.6
2017-Sep-18 20:30N 40°39' W 074°04'4 8.7
2017-Sep-18 20:00N 40°42' W 074°01'4 8.6
2017-Sep-18 19:30N 40°39' W 074°04'0 0.0
2017-Sep-18 19:00N 40°39' W 074°04'4 8.2
2017-Sep-18 18:29N 40°42' W 074°01'4 9.1
2017-Sep-18 18:01N 40°39' W 074°04'0 0.0
2017-Sep-18 17:31N 40°39' W 074°04'4 8.7
2017-Sep-18 17:00N 40°42' W 074°01'4 8.6
2017-Sep-18 16:30N 40°39' W 074°04'4 8.6
2017-Sep-18 16:00N 40°42' W 074°01'4 8.6
2017-Sep-18 15:30N 40°39' W 074°04'4 8.7
2017-Sep-18 15:00N 40°42' W 074°01'4 8.7
2017-Sep-18 14:30N 40°39' W 074°04'4 8.6
2017-Sep-18 14:00N 40°42' W 074°01'4 8.6
2017-Sep-18 13:31N 40°39' W 074°04'4 7.7
2017-Sep-18 13:00N 40°42' W 074°01'3 6.9
2017-Sep-18 12:31N 40°39' W 074°04'3 5.2
2017-Sep-18 12:01N 40°41' W 074°02'1 2.3
2017-Sep-18 11:31N 40°40' W 074°03'2 3.9
2017-Sep-18 11:00N 40°39' W 074°04'4 8.6
2017-Sep-18 10:30N 40°42' W 074°01'4 5.8
2017-Sep-18 09:46N 40°39' W 074°04'0 0.4
2017-Sep-18 09:30N 40°39' W 074°04'0 0.0
2017-Sep-18 09:00N 40°39' W 074°04'0 0.0
2017-Sep-18 08:31N 40°39' W 074°04'0 0.0
2017-Sep-18 08:00N 40°39' W 074°04'0 0.0
2017-Sep-18 07:30N 40°39' W 074°04'0 0.1
2017-Sep-18 06:59N 40°39' W 074°04'0 0.0
2017-Sep-18 06:29N 40°39' W 074°04'0 0.0
2017-Sep-18 05:59N 40°39' W 074°04'0 0.0
2017-Sep-18 05:29N 40°39' W 074°04'0 0.0
2017-Sep-18 04:59N 40°39' W 074°04'0 0.0
2017-Sep-18 04:29N 40°39' W 074°04'0 0.0
2017-Sep-18 03:59N 40°39' W 074°04'0 0.0
2017-Sep-18 03:29N 40°39' W 074°04'0 0.0
2017-Sep-18 02:59N 40°39' W 074°04'0 0.0
2017-Sep-18 02:29N 40°39' W 074°04'0 0.0
2017-Sep-18 01:59N 40°39' W 074°04'0 0.0
2017-Sep-18 01:29N 40°39' W 074°04'0 0.0
2017-Sep-18 00:59N 40°39' W 074°04'0 0.0
2017-Sep-18 00:29N 40°39' W 074°04'0 0.0
2017-Sep-17 23:59N 40°39' W 074°04'0 0.0
2017-Sep-17 23:29N 40°39' W 074°04'0 0.0
2017-Sep-17 22:59N 40°39' W 074°04'0 0.0
2017-Sep-17 22:29N 40°39' W 074°04'0 0.0
2017-Sep-17 21:59N 40°39' W 074°04'0 0.0
2017-Sep-17 21:29N 40°39' W 074°04'0 0.0
2017-Sep-17 20:59N 40°39' W 074°04'0 0.0
2017-Sep-17 20:29N 40°39' W 074°04'0 0.0
2017-Sep-17 19:59N 40°39' W 074°04'0 0.0
2017-Sep-17 19:29N 40°39' W 074°04'0 0.0
2017-Sep-17 18:59N 40°39' W 074°04'0 0.0
2017-Sep-17 18:29N 40°39' W 074°04'0 0.0
2017-Sep-17 17:59N 40°39' W 074°04'0 0.0
2017-Sep-17 17:29N 40°39' W 074°04'0 0.0
2017-Sep-17 16:59N 40°39' W 074°04'0 0.0
2017-Sep-17 16:29N 40°39' W 074°04'0 0.0
2017-Sep-17 15:59N 40°39' W 074°04'0 0.0
2017-Sep-17 15:29N 40°39' W 074°04'0 0.0
2017-Sep-17 14:59N 40°39' W 074°04'0 0.0
2017-Sep-17 14:29N 40°39' W 074°04'0 0.0
2017-Sep-17 13:59N 40°39' W 074°04'0 0.0
2017-Sep-17 13:29N 40°39' W 074°04'0 0.0
2017-Sep-17 12:59N 40°39' W 074°04'0 0.0
2017-Sep-17 12:29N 40°39' W 074°04'0 0.0
2017-Sep-17 11:59N 40°39' W 074°04'0 0.0
2017-Sep-17 11:26N 40°39' W 074°04'0 0.0
2017-Sep-17 10:59N 40°39' W 074°04'0 0.0
2017-Sep-17 10:29N 40°39' W 074°04'0 0.0
2017-Sep-17 09:59N 40°39' W 074°04'0 0.0
2017-Sep-17 09:29N 40°39' W 074°04'0 0.0
2017-Sep-17 08:59N 40°39' W 074°04'0 0.0
2017-Sep-17 08:29N 40°39' W 074°04'0 0.0
2017-Sep-17 07:59N 40°39' W 074°04'0 0.0
2017-Sep-17 07:29N 40°39' W 074°04'0 0.0
2017-Sep-17 06:59N 40°39' W 074°04'0 0.0
2017-Sep-17 06:29N 40°39' W 074°04'0 0.0
2017-Sep-17 05:59N 40°39' W 074°04'0 0.0
2017-Sep-17 05:30N 40°39' W 074°04'0 0.0
2017-Sep-17 04:59N 40°39' W 074°04'0 0.0
2017-Sep-17 04:29N 40°39' W 074°04'0 0.0
2017-Sep-17 03:59N 40°39' W 074°04'0 0.0
2017-Sep-17 03:29N 40°39' W 074°04'0 0.0
2017-Sep-17 02:59N 40°39' W 074°04'0 0.0
2017-Sep-17 02:29N 40°39' W 074°04'0 0.0
2017-Sep-17 01:59N 40°39' W 074°04'0 0.0
2017-Sep-17 01:29N 40°39' W 074°04'0 0.0
2017-Sep-17 00:59N 40°39' W 074°04'0 0.0
2017-Sep-17 00:29N 40°39' W 074°04'0 0.0
2017-Sep-16 23:59N 40°39' W 074°04'0 0.0
2017-Sep-16 23:29N 40°39' W 074°04'0 0.0
2017-Sep-16 22:59N 40°39' W 074°04'0 0.4
2017-Sep-16 22:31N 40°39' W 074°04'0 0.4
2017-Sep-16 22:00N 40°39' W 074°04'4 4.3
2017-Sep-16 21:01N 40°42' W 074°01'4 8.6
2017-Sep-16 20:30N 40°39' W 074°04'0 0.0
2017-Sep-16 20:01N 40°39' W 074°04'4 8.6
2017-Sep-16 19:30N 40°42' W 074°01'4 8.6
2017-Sep-16 19:00N 40°39' W 074°04'0 0.0
2017-Sep-16 18:30N 40°39' W 074°04'4 8.6
2017-Sep-16 18:00N 40°42' W 074°01'4 8.6
2017-Sep-16 17:31N 40°39' W 074°04'0 0.1
2017-Sep-16 17:00N 40°39' W 074°04'4 8.7
2017-Sep-16 16:31N 40°42' W 074°01'4 8.6
2017-Sep-16 16:00N 40°39' W 074°04'0 0.1
2017-Sep-16 15:30N 40°39' W 074°04'4 8.6
2017-Sep-16 15:00N 40°42' W 074°01'4 8.6
2017-Sep-16 14:31N 40°39' W 074°04'4 8.5
2017-Sep-16 14:00N 40°42' W 074°01'4 8.5
2017-Sep-16 13:30N 40°39' W 074°04'4 8.6
2017-Sep-16 13:01N 40°42' W 074°01'4 8.6
2017-Sep-16 12:30N 40°39' W 074°04'4 8.5
2017-Sep-16 12:00N 40°42' W 074°01'4 8.5
2017-Sep-16 11:30N 40°39' W 074°04'0 0.4
2017-Sep-16 11:01N 40°39' W 074°04'0 0.3
2017-Sep-16 10:30N 40°39' W 074°04'0 0.0
2017-Sep-16 10:00N 40°39' W 074°04'0 0.0
2017-Sep-16 09:30N 40°39' W 074°04'0 0.0
2017-Sep-16 09:00N 40°39' W 074°04'0 0.0
2017-Sep-16 08:29N 40°39' W 074°04'0 0.0
2017-Sep-16 07:59N 40°39' W 074°04'0 0.0
2017-Sep-16 07:29N 40°39' W 074°04'0 0.0
2017-Sep-16 06:59N 40°39' W 074°04'0 0.0
2017-Sep-16 06:29N 40°39' W 074°04'0 0.0
2017-Sep-16 05:59N 40°39' W 074°04'0 0.0
2017-Sep-16 05:29N 40°39' W 074°04'0 0.0
2017-Sep-16 04:59N 40°39' W 074°04'0 0.0
2017-Sep-16 04:29N 40°39' W 074°04'0 0.0
2017-Sep-16 03:59N 40°39' W 074°04'0 0.0
2017-Sep-16 03:29N 40°39' W 074°04'0 0.0
2017-Sep-16 02:59N 40°39' W 074°04'0 0.0
2017-Sep-16 02:29N 40°39' W 074°04'0 0.0
2017-Sep-16 01:59N 40°39' W 074°04'0 0.1
2017-Sep-16 01:30N 40°39' W 074°04'0 0.0
2017-Sep-16 01:00N 40°39' W 074°04'4 8.7
2017-Sep-16 00:30N 40°42' W 074°01'4 8.6
2017-Sep-16 00:01N 40°39' W 074°04'3 6.3
2017-Sep-15 23:30N 40°41' W 074°02'2 4.1
2017-Sep-15 23:01N 40°39' W 074°03'2 4.1
2017-Sep-15 22:30N 40°41' W 074°02'2 3.7
2017-Sep-15 22:01N 40°40' W 074°03'2 3.1
2017-Sep-15 21:30N 40°41' W 074°02'3 4.0
2017-Sep-15 20:48N 40°39' W 074°04'0 0.1
2017-Sep-15 20:31N 40°39' W 074°04'0 0.0
2017-Sep-15 20:01N 40°39' W 074°04'4 8.6
2017-Sep-15 19:31N 40°42' W 074°01'4 8.7
2017-Sep-15 19:00N 40°39' W 074°04'1 1.2
2017-Sep-15 18:30N 40°38' W 074°04'1 1.2
2017-Sep-15 18:00N 40°39' W 074°04'0 0.0
2017-Sep-15 17:30N 40°39' W 074°04'0 0.0
2017-Sep-15 17:00N 40°39' W 074°04'0 0.0
2017-Sep-15 16:30N 40°39' W 074°04'0 0.0
2017-Sep-15 16:01N 40°39' W 074°04'0 0.0
2017-Sep-15 15:30N 40°39' W 074°04'0 0.1
2017-Sep-15 15:00N 40°39' W 074°04'0 0.0
2017-Sep-15 14:30N 40°39' W 074°04'0 0.0
2017-Sep-15 14:00N 40°39' W 074°04'0 0.0
2017-Sep-15 13:30N 40°39' W 074°04'0 0.0
2017-Sep-15 13:00N 40°39' W 074°04'0 0.0
2017-Sep-15 12:30N 40°39' W 074°04'0 0.0
2017-Sep-15 12:00N 40°39' W 074°04'0 0.0
2017-Sep-15 11:30N 40°39' W 074°04'0 0.0
2017-Sep-15 11:00N 40°39' W 074°04'0 0.0
2017-Sep-15 10:30N 40°39' W 074°04'0 0.0
2017-Sep-15 10:00N 40°39' W 074°04'0 0.0
2017-Sep-15 09:30N 40°39' W 074°04'0 0.0
2017-Sep-15 09:00N 40°39' W 074°04'0 0.0
2017-Sep-15 08:30N 40°39' W 074°04'0 0.0
2017-Sep-15 08:00N 40°39' W 074°04'0 0.0
2017-Sep-15 07:30N 40°39' W 074°04'0 0.0
2017-Sep-15 07:00N 40°39' W 074°04'0 0.0
2017-Sep-15 06:30N 40°39' W 074°04'0 0.0
2017-Sep-15 06:00N 40°39' W 074°04'0 0.0
2017-Sep-15 05:30N 40°39' W 074°04'0 0.0
2017-Sep-15 05:00N 40°39' W 074°04'0 0.0
2017-Sep-15 04:30N 40°39' W 074°04'0 0.0
2017-Sep-15 04:00N 40°39' W 074°04'0 0.0
2017-Sep-15 03:30N 40°39' W 074°04'0 0.0
2017-Sep-15 03:00N 40°39' W 074°04'0 0.0
2017-Sep-15 02:30N 40°39' W 074°04'0 0.0
2017-Sep-15 02:00N 40°39' W 074°04'0 0.0
2017-Sep-15 01:30N 40°39' W 074°04'0 0.0
2017-Sep-15 01:00N 40°39' W 074°04'0 0.0
2017-Sep-15 00:30N 40°39' W 074°04'  

Dump ship's entire track history